Startpagina
METAR-TAF:

METAR-TAF

Vliegvelden :

Piešťany, Slowakije

breedte: 48-37-30N, lengte: 017-49-43E, hoogte: 163 m

Actueel weer

Dit bericht is 30 minuten geleden gemaakt, om 10:30 UTC
Wind 3 kt uit variabele richting
Temperatuur 11°C
Vochtigheid 71%
Druk 1030 hPa
Zicht 10 km of meer
Verspreide wolken op 2500 ft

METAR: LZPP 141030Z VRB03KT 9999 SCT025 11/06 Q1030

Tijdstip: 12:00 (11:00 UTC)

Verwachting

Dit bericht is 3 uur en het 0 minuten geleden gemaakt, om 08:00 UTC
Verwachting geldig van 14 om 09 UTC tot 14 om 18 UTC
Wind 10 kt uit het noorden
Zicht 10 km of meer
Verspreide wolken op 3500 ft
Wijzigt naar
van 14 om 15 UTC tot 14 om 17 UTC
Wind 6 kt uit het noordnoordoosten
Zicht 10 km of meer
geen wolken onder 1500 m en geen cumulonimbus

TAF: LZPP 140800Z 1409/1418 35010KT 9999 SCT035 BECMG 1415/1417 02006KT CAVOK

Waarnemingen en weersverwachtingen van meer dan 4000 vliegvelden (METAR en TAF).

De beschikbare stations zijn de gele en rode punten op de kaart.

Ga met uw muis naar het station om de naam te zien.

Klik dan om waarnemingen en weersverwachtingen te zien.

kaart wijzigen: klik op de groene knoppen met een zwart kruis om in te zoomen, op de groene knop met een streepje om uit te zoomen of op de groene pijlen voor aangrenzende kaarten.


METAR-TAF: